Villa Cisneros, Western Sahara
Current Conditions -  °F | °C
As of 1:00 PM on Sunday 23 Nov 2014 (Local Time) from GMMH Reporting Station
Broken Clouds Broken Clouds  
Wind Chill: 72°   Ceiling: 8000
Heat Index: 72°   Visibility: 5mi
Dew Point: 63°   Wind: 16mph
Humidity: 73%   Direction: 310°NW
Pressure: 30"   Gusts: NA
Location:  23.7°N, 15.94°W
Report Text: GMMH 231300Z 31014KT 8000 SCT016 BKN080 22/17 Q1016 NOSIG
Loading
Personal Weather Stations






























Interactive Weather Map New forecast layout! Learn more

10-Day Weather Forecast

Advertisements
Track Severe Weather on mobile